Time;durP1;ratioP1;P1;durP2;ratioP2;P2;SDS_P1;SDS_P2;PMS_P1;PMS_P2;Temp;Humidity;BMP_temperature;BMP_pressure;BME280_temperature;BME280_humidity;BME280_pressure;Samples;Min_cycle;Max_cycle;Signal;HPM_P1;HPM_P2
2021/10/03 00:01:22;;;;;;;78.87;37.73;;;18.70;99.90;;;;;;5019016;28;20435;-82
2021/10/03 00:03:50;;;;;;;80.70;41.43;;;18.70;99.90;;;;;;5019099;28;20866;-82
2021/10/03 00:06:17;;;;;;;80.07;40.80;;;18.70;99.90;;;;;;5036484;28;20406;-81
2021/10/03 00:08:44;;;;;;;81.57;44.50;;;18.70;99.90;;;;;;5036419;28;20420;-82
2021/10/03 00:11:10;;;;;;;81.17;40.50;;;18.70;99.90;;;;;;5035584;28;20407;-82
2021/10/03 00:13:37;;;;;;;81.10;44.17;;;18.70;99.90;;;;;;5036187;28;20408;-82
2021/10/03 00:16:04;;;;;;;79.60;38.83;;;18.80;99.90;;;;;;5035837;28;20407;-81
2021/10/03 00:18:30;;;;;;;79.77;39.30;;;18.80;99.90;;;;;;5036310;28;20427;-81
2021/10/03 00:20:56;;;;;;;81.50;44.67;;;18.80;99.90;;;;;;5036082;28;20749;-81
2021/10/03 00:23:22;;;;;;;83.67;53.20;;;18.80;99.90;;;;;;5036107;28;20407;-82
2021/10/03 00:25:49;;;;;;;84.57;54.77;;;18.80;99.90;;;;;;5037082;28;20165;-82
2021/10/03 00:28:15;;;;;;;88.17;66.50;;;18.80;99.90;;;;;;5036361;28;20467;-82
2021/10/03 00:30:43;;;;;;;87.20;61.23;;;18.80;99.90;;;;;;5035730;28;20401;-82
2021/10/03 00:33:09;;;;;;;82.40;49.00;;;18.80;99.90;;;;;;5035945;28;20397;-82
2021/10/03 00:35:36;;;;;;;88.47;59.17;;;18.70;99.90;;;;;;5035971;28;20918;-81
2021/10/03 00:38:04;;;;;;;92.53;78.13;;;18.70;99.90;;;;;;5035721;28;20585;-82
2021/10/03 00:40:32;;;;;;;121.23;109.83;;;18.70;99.90;;;;;;5018306;28;20400;-81
2021/10/03 00:43:00;;;;;;;120.73;109.27;;;18.70;99.90;;;;;;5035555;28;20412;-82
2021/10/03 00:45:27;;;;;;;115.70;104.47;;;18.70;99.90;;;;;;5017670;28;20447;-81
2021/10/03 00:47:52;;;;;;;105.00;94.07;;;18.70;99.90;;;;;;5036096;28;20417;-81
2021/10/03 00:50:18;;;;;;;96.77;86.00;;;18.70;99.90;;;;;;5034573;28;20459;-81
2021/10/03 00:52:48;;;;;;;114.00;102.70;;;18.70;99.90;;;;;;5036549;28;20254;-81
2021/10/03 00:55:15;;;;;;;143.33;131.00;;;18.70;99.90;;;;;;5036259;28;21010;-82
2021/10/03 00:57:46;;;;;;;150.20;137.40;;;18.80;99.90;;;;;;5036254;28;20806;-81
2021/10/03 01:00:13;;;;;;;202.33;187.03;;;18.80;99.90;;;;;;5035779;28;20386;-82
2021/10/03 01:02:40;;;;;;;158.03;144.97;;;18.70;99.90;;;;;;5035492;28;20729;-81
2021/10/03 01:05:08;;;;;;;124.60;112.90;;;18.70;99.90;;;;;;5036767;28;20453;-82
2021/10/03 01:07:35;;;;;;;100.27;89.53;;;18.70;99.90;;;;;;5017923;28;20428;-81
2021/10/03 01:10:04;;;;;;;93.10;76.27;;;18.60;99.90;;;;;;5035648;28;20411;-82
2021/10/03 01:12:30;;;;;;;88.30;65.73;;;18.60;99.90;;;;;;5035465;28;20392;-81
2021/10/03 01:14:55;;;;;;;90.80;73.10;;;18.60;99.90;;;;;;5018165;28;20415;-81
2021/10/03 01:17:21;;;;;;;81.07;45.17;;;18.60;99.90;;;;;;5035412;28;20191;-81
2021/10/03 01:19:47;;;;;;;86.30;60.23;;;18.60;99.90;;;;;;5035809;28;20164;-81
2021/10/03 01:22:13;;;;;;;81.40;38.47;;;18.60;99.90;;;;;;5035801;28;20161;-81
2021/10/03 01:24:39;;;;;;;80.10;40.83;;;18.50;99.90;;;;;;5035256;28;20808;-82
2021/10/03 01:27:05;;;;;;;83.17;49.13;;;18.60;99.90;;;;;;5017413;28;20447;-81
2021/10/03 01:29:31;;;;;;;79.87;39.63;;;18.50;99.90;;;;;;5035437;28;20497;-81
2021/10/03 01:31:57;;;;;;;87.80;60.07;;;18.50;99.90;;;;;;5035201;28;20825;-80
2021/10/03 01:34:23;;;;;;;78.77;35.70;;;18.50;99.90;;;;;;5034363;28;20439;-81
2021/10/03 01:36:49;;;;;;;77.63;37.03;;;18.40;99.90;;;;;;5035739;28;20522;-81
2021/10/03 01:39:15;;;;;;;82.30;45.13;;;18.50;99.90;;;;;;5035412;28;20443;-81
2021/10/03 01:41:41;;;;;;;79.90;40.20;;;18.50;99.90;;;;;;5035460;28;20169;-81
2021/10/03 01:44:06;;;;;;;79.13;39.00;;;18.40;99.90;;;;;;5017067;28;20657;-81
2021/10/03 01:46:32;;;;;;;79.80;38.47;;;18.40;99.90;;;;;;5034760;28;20941;-81
2021/10/03 01:48:58;;;;;;;80.87;44.93;;;18.40;99.90;;;;;;5034789;28;20170;-82
2021/10/03 01:51:25;;;;;;;93.37;63.70;;;18.40;99.90;;;;;;5034905;28;20503;-82
2021/10/03 01:53:58;;;;;;;78.57;39.00;;;18.40;99.90;;;;;;5035377;28;20162;-81
2021/10/03 01:56:25;;;;;;;81.27;40.37;;;18.40;99.90;;;;;;5034466;28;20398;-82
2021/10/03 01:58:57;;;;;;;76.83;35.47;;;18.30;99.90;;;;;;5034831;28;20427;-81
2021/10/03 02:01:34;;;;;;;80.53;42.00;;;18.30;99.90;;;;;;5034936;28;20477;-82
2021/10/03 02:04:05;;;;;;;77.53;36.80;;;18.30;99.90;;;;;;5017345;28;20467;-82
2021/10/03 02:06:31;;;;;;;81.33;42.13;;;18.30;99.90;;;;;;5016965;28;20388;-81
2021/10/03 02:08:58;;;;;;;79.97;44.17;;;18.30;99.90;;;;;;5034919;28;20760;-81
2021/10/03 02:11:27;;;;;;;84.73;46.33;;;18.20;99.90;;;;;;5033659;28;20223;-81
2021/10/03 02:13:53;;;;;;;80.50;43.67;;;18.20;99.90;;;;;;5033459;28;20939;-81
2021/10/03 02:16:19;;;;;;;82.33;40.47;;;18.20;99.90;;;;;;5016787;28;20411;-81
2021/10/03 02:18:47;;;;;;;83.13;45.77;;;18.20;99.90;;;;;;5034805;28;20765;-81
2021/10/03 02:21:14;;;;;;;81.13;40.87;;;18.10;99.90;;;;;;5033462;28;20173;-82
2021/10/03 02:23:41;;;;;;;81.00;45.57;;;18.10;99.90;;;;;;5034573;28;20943;-81
2021/10/03 02:26:08;;;;;;;77.97;37.00;;;18.10;99.90;;;;;;5032867;28;20407;-81
2021/10/03 02:28:34;;;;;;;81.33;47.07;;;18.10;99.90;;;;;;5034534;28;20416;-82
2021/10/03 02:31:03;;;;;;;79.57;38.57;;;18.10;99.90;;;;;;5017632;28;20412;-81
2021/10/03 02:33:29;;;;;;;81.20;39.00;;;18.10;99.90;;;;;;5034861;28;20461;-82
2021/10/03 02:35:56;;;;;;;82.37;35.50;;;18.20;99.90;;;;;;5037926;28;20407;-81
2021/10/03 02:38:23;;;;;;;77.87;37.47;;;18.10;99.90;;;;;;5020408;28;20189;-82
2021/10/03 02:40:51;;;;;;;77.47;36.60;;;18.00;99.90;;;;;;5038179;28;20915;-81
2021/10/03 02:43:17;;;;;;;82.20;39.50;;;18.10;99.90;;;;;;5038065;28;20952;-81
2021/10/03 02:45:46;;;;;;;79.87;40.87;;;18.10;99.90;;;;;;5019971;28;20443;-81
2021/10/03 02:48:12;;;;;;;79.80;41.60;;;18.00;99.90;;;;;;5037915;28;20424;-82
2021/10/03 02:50:38;;;;;;;81.20;42.33;;;18.00;99.90;;;;;;5038269;28;20871;-82
2021/10/03 02:53:05;;;;;;;80.10;41.37;;;18.00;99.90;;;;;;5019709;28;20416;-82
2021/10/03 02:55:33;;;;;;;83.10;50.83;;;18.00;99.90;;;;;;5037693;28;20466;-82
2021/10/03 02:57:58;;;;;;;81.23;41.97;;;18.00;99.90;;;;;;5037504;28;20939;-81
2021/10/03 03:00:24;;;;;;;85.43;50.27;;;18.00;99.90;;;;;;5037623;28;20499;-82
2021/10/03 03:02:49;;;;;;;80.60;41.00;;;18.00;99.90;;;;;;5037824;28;20252;-81
2021/10/03 03:05:15;;;;;;;83.70;51.60;;;18.10;99.90;;;;;;5037936;28;20284;-81
2021/10/03 03:07:41;;;;;;;88.47;65.77;;;18.10;99.90;;;;;;5019600;28;20217;-81
2021/10/03 03:10:09;;;;;;;90.33;68.37;;;18.10;99.90;;;;;;5037701;28;20521;-81
2021/10/03 03:12:36;;;;;;;92.87;79.27;;;18.10;99.90;;;;;;5037521;28;20184;-81
2021/10/03 03:15:04;;;;;;;109.17;98.17;;;18.20;99.90;;;;;;5037464;28;20431;-81
2021/10/03 03:17:29;;;;;;;134.80;122.77;;;18.20;99.90;;;;;;5037661;28;20431;-81
2021/10/03 03:19:55;;;;;;;121.87;110.33;;;18.20;99.90;;;;;;5037769;28;20908;-81
2021/10/03 03:22:21;;;;;;;159.40;146.43;;;18.20;99.90;;;;;;5020199;28;20165;-81
2021/10/03 03:24:46;;;;;;;164.53;151.23;;;18.20;99.90;;;;;;5037821;28;20657;-82
2021/10/03 03:27:12;;;;;;;158.63;145.57;;;18.20;99.90;;;;;;5037460;28;20541;-81
2021/10/03 03:29:38;;;;;;;171.03;157.67;;;18.20;99.90;;;;;;5037719;28;20196;-81
2021/10/03 03:32:04;;;;;;;187.47;173.40;;;18.30;99.90;;;;;;5036818;28;20168;-81
2021/10/03 03:34:31;;;;;;;227.83;212.23;;;18.40;99.90;;;;;;5035988;28;20446;-81
2021/10/03 03:36:57;;;;;;;198.60;184.10;;;18.40;99.90;;;;;;5036792;28;20425;-81
2021/10/03 03:39:22;;;;;;;141.13;128.60;;;18.50;99.90;;;;;;5037094;28;20499;-81
2021/10/03 03:41:48;;;;;;;138.27;126.00;;;18.60;99.90;;;;;;5037372;28;20172;-81
2021/10/03 03:44:14;;;;;;;148.43;135.60;;;18.60;99.90;;;;;;5036836;28;20197;-81
2021/10/03 03:46:40;;;;;;;103.00;92.00;;;18.60;99.90;;;;;;5035467;28;20169;-81
2021/10/03 03:49:06;;;;;;;91.33;70.83;;;18.70;99.90;;;;;;5036707;28;20189;-81
2021/10/03 03:51:31;;;;;;;92.60;77.97;;;18.60;99.90;;;;;;5036912;28;20396;-81
2021/10/03 03:53:57;;;;;;;95.17;82.57;;;18.60;99.90;;;;;;5037040;28;20244;-81
2021/10/03 03:56:22;;;;;;;90.97;71.87;;;18.80;99.90;;;;;;5035323;28;20174;-81
2021/10/03 03:58:48;;;;;;;91.00;57.20;;;18.80;99.90;;;;;;5036650;28;20193;-81
2021/10/03 04:01:14;;;;;;;88.00;62.03;;;18.90;99.90;;;;;;5037034;28;20185;-81
2021/10/03 04:03:39;;;;;;;83.27;48.60;;;18.90;99.90;;;;;;5035769;28;20201;-82
2021/10/03 04:06:05;;;;;;;80.23;42.03;;;19.00;99.90;;;;;;5037251;28;20617;-81
2021/10/03 04:08:31;;;;;;;85.10;51.70;;;19.00;99.90;;;;;;5036878;28;20227;-81
2021/10/03 04:10:57;;;;;;;84.90;55.70;;;19.00;99.90;;;;;;5019728;28;20432;-81
2021/10/03 04:13:23;;;;;;;85.60;52.07;;;19.00;99.90;;;;;;5036614;28;20803;-82
2021/10/03 04:15:49;;;;;;;88.60;56.00;;;19.00;99.90;;;;;;5035162;28;20248;-81
2021/10/03 04:18:15;;;;;;;87.57;60.80;;;19.00;99.90;;;;;;5036729;28;20522;-81
2021/10/03 04:20:41;;;;;;;87.07;58.27;;;19.10;99.90;;;;;;5036463;28;20173;-81
2021/10/03 04:23:07;;;;;;;85.27;55.17;;;19.10;99.90;;;;;;5018111;28;20176;-81
2021/10/03 04:25:32;;;;;;;90.30;63.77;;;19.20;99.90;;;;;;5036254;28;20951;-81
2021/10/03 04:27:58;;;;;;;83.37;49.17;;;19.20;99.80;;;;;;5035603;28;20315;-82
2021/10/03 04:30:24;;;;;;;85.87;57.20;;;19.30;99.90;;;;;;5035640;28;20408;-81
2021/10/03 04:32:50;;;;;;;87.93;60.80;;;19.30;99.90;;;;;;5018530;28;20201;-81
2021/10/03 04:35:16;;;;;;;87.13;56.03;;;19.30;99.90;;;;;;5035939;28;20407;-81
2021/10/03 04:37:41;;;;;;;85.27;55.47;;;19.30;99.90;;;;;;5017985;28;20189;-81
2021/10/03 04:40:08;;;;;;;86.77;61.03;;;19.30;99.90;;;;;;5035942;28;20180;-82
2021/10/03 04:42:34;;;;;;;83.80;49.80;;;19.30;99.80;;;;;;5035920;28;20532;-81
2021/10/03 04:44:59;;;;;;;88.97;49.87;;;19.30;99.90;;;;;;5035660;28;20454;-81
2021/10/03 04:47:25;;;;;;;82.13;48.10;;;19.30;99.90;;;;;;5035733;28;20545;-81
2021/10/03 04:49:53;;;;;;;84.40;48.47;;;19.30;99.90;;;;;;5035627;28;20184;-81
2021/10/03 04:52:27;;;;;;;86.50;54.57;;;19.30;99.90;;;;;;5035850;28;20610;-81
2021/10/03 04:54:53;;;;;;;83.77;50.73;;;19.30;99.90;;;;;;5017852;28;20451;-82
2021/10/03 04:57:19;;;;;;;85.13;53.33;;;19.40;99.90;;;;;;5035366;28;20420;-82
2021/10/03 04:59:46;;;;;;;82.13;46.90;;;19.40;99.90;;;;;;5035954;28;20982;-82
2021/10/03 05:02:12;;;;;;;81.77;43.13;;;19.40;99.90;;;;;;5017919;28;20432;-81
2021/10/03 05:04:37;;;;;;;80.70;39.80;;;19.40;99.90;;;;;;5035865;28;20509;-82
2021/10/03 05:07:03;;;;;;;82.90;43.90;;;19.40;99.90;;;;;;5035758;28;20427;-82
2021/10/03 05:09:29;;;;;;;84.63;49.73;;;19.50;99.90;;;;;;5035982;28;20169;-82
2021/10/03 05:11:55;;;;;;;82.50;45.67;;;19.50;99.90;;;;;;5035691;28;20407;-82
2021/10/03 05:14:20;;;;;;;82.60;41.50;;;19.50;99.90;;;;;;5035709;28;20180;-82
2021/10/03 05:16:46;;;;;;;83.67;46.87;;;19.50;99.90;;;;;;5035499;28;20165;-82
2021/10/03 05:19:12;;;;;;;82.73;46.77;;;19.40;99.90;;;;;;5034995;28;20280;-82
2021/10/03 05:21:38;;;;;;;79.80;41.40;;;19.40;99.90;;;;;;5017578;28;20943;-81
2021/10/03 05:24:05;;;;;;;83.33;48.13;;;19.40;99.90;;;;;;5034890;28;20550;-82
2021/10/03 05:26:30;;;;;;;81.70;41.67;;;19.50;99.90;;;;;;5035687;28;20423;-81
2021/10/03 05:28:56;;;;;;;82.97;52.13;;;19.50;99.90;;;;;;5035523;28;20419;-82
2021/10/03 05:31:23;;;;;;;80.40;41.33;;;19.50;99.90;;;;;;5017470;28;20165;-81
2021/10/03 05:33:51;;;;;;;82.07;48.37;;;19.50;99.90;;;;;;5036350;28;20180;-82
2021/10/03 05:36:17;;;;;;;84.97;52.10;;;19.50;99.90;;;;;;5035458;28;20475;-82
2021/10/03 05:38:43;;;;;;;83.17;46.40;;;19.50;99.90;;;;;;5033928;28;20451;-82
2021/10/03 05:41:10;;;;;;;81.07;43.77;;;19.50;99.90;;;;;;5035590;28;20177;-81
2021/10/03 05:43:39;;;;;;;82.20;43.63;;;19.50;99.90;;;;;;5017651;28;21030;-82
2021/10/03 05:46:06;;;;;;;79.13;40.10;;;19.50;99.90;;;;;;5035579;28;20404;-82
2021/10/03 05:48:32;;;;;;;81.47;43.80;;;19.50;99.90;;;;;;5033610;28;20913;-82
2021/10/03 05:50:58;;;;;;;81.93;45.77;;;19.50;99.90;;;;;;5017745;28;20466;-82
2021/10/03 05:53:24;;;;;;;83.37;52.57;;;19.50;99.90;;;;;;5035620;28;20812;-82
2021/10/03 05:55:49;;;;;;;81.80;48.27;;;19.50;99.90;;;;;;5017150;28;20443;-82
2021/10/03 05:58:15;;;;;;;83.83;48.57;;;19.50;99.90;;;;;;5035458;28;20185;-82
2021/10/03 06:00:41;;;;;;;80.10;41.50;;;19.50;99.90;;;;;;5034898;28;20189;-82
2021/10/03 06:03:06;;;;;;;79.50;38.23;;;19.50;99.90;;;;;;5035856;28;20169;-82
2021/10/03 06:05:32;;;;;;;80.27;43.33;;;19.50;99.90;;;;;;5035061;28;20653;-82
2021/10/03 06:07:58;;;;;;;79.77;39.73;;;19.50;99.90;;;;;;5035066;28;20189;-82
2021/10/03 06:10:24;;;;;;;81.27;41.00;;;19.50;99.90;;;;;;5037642;28;20166;-82
2021/10/03 06:12:50;;;;;;;81.83;40.70;;;19.50;99.90;;;;;;5037954;28;20166;-81
2021/10/03 06:15:16;;;;;;;82.37;44.10;;;19.50;99.90;;;;;;5038936;28;20925;-82
2021/10/03 06:17:42;;;;;;;83.53;52.57;;;19.60;99.90;;;;;;5020650;28;20522;-82
2021/10/03 06:20:08;;;;;;;84.17;51.60;;;19.50;99.90;;;;;;5037458;28;20633;-82
2021/10/03 06:22:35;;;;;;;81.03;43.93;;;19.60;99.90;;;;;;5038806;28;20586;-79
2021/10/03 06:25:00;;;;;;;81.73;46.70;;;19.70;99.90;;;;;;5035788;28;20458;-81
2021/10/03 06:27:26;;;;;;;84.43;50.70;;;19.70;99.90;;;;;;5038411;28;20518;-82
2021/10/03 06:29:53;;;;;;;82.00;46.07;;;19.70;99.90;;;;;;5038881;28;20196;-82
2021/10/03 06:32:18;;;;;;;80.87;41.03;;;19.70;99.90;;;;;;5037664;28;20192;-77
2021/10/03 06:34:44;;;;;;;84.07;45.73;;;19.70;99.90;;;;;;5037866;28;20411;-82
2021/10/03 06:37:10;;;;;;;82.20;45.90;;;19.70;99.90;;;;;;5038219;28;20420;-82
2021/10/03 06:39:36;;;;;;;81.63;45.53;;;19.70;99.90;;;;;;5038899;28;20498;-81
2021/10/03 06:42:01;;;;;;;80.60;42.87;;;19.70;99.70;;;;;;5038538;28;20169;-81
2021/10/03 06:44:27;;;;;;;81.70;44.80;;;19.70;99.80;;;;;;5038185;28;20192;-81
2021/10/03 06:46:53;;;;;;;84.53;51.47;;;19.70;99.90;;;;;;5037825;28;20679;-81
2021/10/03 06:49:18;;;;;;;83.00;49.97;;;19.70;99.90;;;;;;5037666;28;20162;-81
2021/10/03 06:51:44;;;;;;;85.23;55.60;;;19.80;99.30;;;;;;5036404;28;20161;-82
2021/10/03 06:54:10;;;;;;;80.80;45.93;;;19.80;99.90;;;;;;5037845;28;20165;-82
2021/10/03 06:56:37;;;;;;;82.47;46.43;;;19.80;99.90;;;;;;5038139;28;20188;-81
2021/10/03 06:59:04;;;;;;;81.40;45.60;;;19.80;99.90;;;;;;5037847;28;20462;-82
2021/10/03 07:01:30;;;;;;;81.87;46.73;;;19.70;99.90;;;;;;5019833;28;20953;-82
2021/10/03 07:03:55;;;;;;;84.10;51.77;;;19.70;99.90;;;;;;5037686;28;20448;-82
2021/10/03 07:06:21;;;;;;;82.17;47.50;;;19.70;99.90;;;;;;5037301;28;20463;-82
2021/10/03 07:08:47;;;;;;;86.03;59.03;;;19.70;99.90;;;;;;5037538;28;20209;-82
2021/10/03 07:11:13;;;;;;;86.20;57.77;;;19.70;99.90;;;;;;5037845;28;20165;-83
2021/10/03 07:13:38;;;;;;;86.43;58.30;;;19.70;99.90;;;;;;5037575;28;20228;-85
2021/10/03 07:16:04;;;;;;;86.90;61.43;;;19.70;99.90;;;;;;5020848;28;20161;-84
2021/10/03 07:18:30;;;;;;;93.90;62.30;;;19.70;99.90;;;;;;5036222;28;20189;-83
2021/10/03 07:20:56;;;;;;;86.07;59.57;;;19.70;99.90;;;;;;5037952;28;20183;-83
2021/10/03 07:23:21;;;;;;;85.60;56.27;;;19.60;99.90;;;;;;5037521;28;20166;-83
2021/10/03 07:25:47;;;;;;;85.87;51.57;;;19.50;99.90;;;;;;5037841;28;20216;-84
2021/10/03 07:28:16;;;;;;;85.87;56.77;;;19.50;99.90;;;;;;5020580;28;20193;-83
2021/10/03 07:30:41;;;;;;;91.43;71.60;;;19.40;99.90;;;;;;5039579;28;20396;-83
2021/10/03 07:33:07;;;;;;;114.63;102.80;;;19.40;99.90;;;;;;5038646;28;20399;-83
2021/10/03 07:35:33;;;;;;;94.20;77.73;;;19.30;99.90;;;;;;5021009;28;20235;-84
2021/10/03 07:37:58;;;;;;;115.97;104.03;;;19.30;99.90;;;;;;5020645;28;20563;-84
2021/10/03 07:40:24;;;;;;;111.57;100.27;;;19.30;99.90;;;;;;5038013;28;20173;-83
2021/10/03 07:42:50;;;;;;;138.50;125.87;;;19.30;99.90;;;;;;5038234;28;20197;-83
2021/10/03 07:45:15;;;;;;;118.13;106.17;;;19.30;99.90;;;;;;5037427;28;20193;-82
2021/10/03 07:47:41;;;;;;;121.57;109.40;;;19.30;99.90;;;;;;5038190;28;20722;-83
2021/10/03 07:50:07;;;;;;;158.40;144.90;;;19.30;99.90;;;;;;5038805;28;20624;-83
2021/10/03 07:52:33;;;;;;;158.77;145.73;;;19.30;99.90;;;;;;5038087;28;20244;-84
2021/10/03 07:54:59;;;;;;;168.73;154.90;;;19.30;99.90;;;;;;5037209;28;20886;-81
2021/10/03 07:57:25;;;;;;;174.63;160.57;;;19.30;99.90;;;;;;5018771;28;20286;-83
2021/10/03 07:59:51;;;;;;;148.87;136.17;;;19.30;99.90;;;;;;5036045;28;20169;-83
2021/10/03 08:02:17;;;;;;;152.63;139.70;;;19.30;99.90;;;;;;5037646;28;20485;-83
2021/10/03 08:04:42;;;;;;;161.60;148.00;;;19.40;99.90;;;;;;5037309;28;20196;-84
2021/10/03 08:07:08;;;;;;;207.70;192.33;;;19.40;99.90;;;;;;5037129;28;20188;-83
2021/10/03 08:09:34;;;;;;;270.00;252.50;;;19.40;99.90;;;;;;5037231;28;20161;-83
2021/10/03 08:11:59;;;;;;;245.67;229.30;;;19.30;99.90;;;;;;5037477;28;20253;-84
2021/10/03 08:14:25;;;;;;;256.80;239.83;;;19.30;99.90;;;;;;5037419;28;20161;-83
2021/10/03 08:16:51;;;;;;;203.60;188.80;;;19.30;99.90;;;;;;5037325;28;20189;-84
2021/10/03 08:19:16;;;;;;;199.83;185.33;;;19.20;99.90;;;;;;5037903;28;20549;-84
2021/10/03 08:21:43;;;;;;;200.33;185.63;;;19.20;99.90;;;;;;5037465;28;20169;-83
2021/10/03 08:24:12;;;;;;;225.10;209.77;;;19.20;99.90;;;;;;5018574;28;20573;-83
2021/10/03 08:26:38;;;;;;;228.03;212.13;;;19.20;99.90;;;;;;5035796;28;20410;-83
2021/10/03 08:29:04;;;;;;;220.77;204.67;;;19.20;99.90;;;;;;5036818;28;20400;-83
2021/10/03 08:31:31;;;;;;;175.30;161.20;;;19.20;99.90;;;;;;5036877;28;20216;-83
2021/10/03 08:33:57;;;;;;;172.50;158.43;;;19.20;99.90;;;;;;5035358;28;20409;-83
2021/10/03 08:36:22;;;;;;;117.50;105.23;;;19.20;99.90;;;;;;5036705;28;20844;-84
2021/10/03 08:38:48;;;;;;;148.93;136.03;;;19.20;99.90;;;;;;5036903;28;20197;-83
2021/10/03 08:41:13;;;;;;;134.60;122.53;;;19.20;99.90;;;;;;5036928;28;20621;-83
2021/10/03 08:43:42;;;;;;;136.20;124.00;;;19.20;99.90;;;;;;5034883;28;20177;-84
2021/10/03 08:46:09;;;;;;;135.70;123.20;;;19.20;99.90;;;;;;5018728;28;20238;-84
2021/10/03 08:48:35;;;;;;;113.03;101.93;;;19.20;99.90;;;;;;5035703;28;20416;-84
2021/10/03 08:51:00;;;;;;;97.30;85.93;;;19.20;99.90;;;;;;5036253;28;20405;-83
2021/10/03 08:53:26;;;;;;;133.90;121.73;;;19.20;99.90;;;;;;5018858;28;20412;-84
2021/10/03 08:55:56;;;;;;;97.60;86.90;;;19.30;99.90;;;;;;5035882;28;20161;-84
2021/10/03 08:58:23;;;;;;;110.90;99.80;;;19.30;99.90;;;;;;5018190;28;20185;-84
2021/10/03 09:00:50;;;;;;;114.47;103.13;;;19.30;99.90;;;;;;5035544;28;20427;-83
2021/10/03 09:03:17;;;;;;;113.77;101.97;;;19.30;99.90;;;;;;5017211;28;20503;-83
2021/10/03 09:05:55;;;;;;;109.40;98.23;;;19.30;99.90;;;;;;5034686;28;20471;-83
2021/10/03 09:08:26;;;;;;;114.73;103.43;;;19.30;99.90;;;;;;5035030;28;20445;-83
2021/10/03 09:11:22;;;;;;;105.77;94.40;;;19.30;99.90;;;;;;5017431;28;20396;-83
2021/10/03 09:13:51;;;;;;;90.90;67.87;;;19.40;99.90;;;;;;5001051;28;20411;-83
2021/10/03 09:16:26;;;;;;;102.77;84.43;;;19.40;99.90;;;;;;5017766;28;20915;-83
2021/10/03 09:18:58;;;;;;;108.77;97.60;;;19.40;99.90;;;;;;5017416;28;20431;-83
2021/10/03 09:21:29;;;;;;;119.33;107.77;;;19.50;99.90;;;;;;5017796;28;20479;-83
2021/10/03 09:24:23;;;;;;;200.40;183.90;;;19.50;99.90;;;;;;5035245;28;20509;-83
2021/10/03 09:26:51;;;;;;;96.40;85.17;;;19.50;99.90;;;;;;5035334;28;20432;-83
2021/10/03 09:29:21;;;;;;;106.30;95.33;;;19.50;99.90;;;;;;5033700;28;20419;-83
2021/10/03 09:32:21;;;;;;;120.50;108.93;;;19.50;99.90;;;;;;5034970;28;20882;-83
2021/10/03 09:34:49;;;;;;;108.73;97.53;;;19.60;99.90;;;;;;5017964;28;20396;-82
2021/10/03 09:38:21;;;;;;;;;;;;;;;;;;;;;
2021/10/03 09:41:48;;;;;;;88.17;62.40;;;19.50;99.90;;;;;;5035388;28;20256;-84
2021/10/03 09:44:20;;;;;;;90.57;69.63;;;19.50;99.90;;;;;;4998909;28;20462;-83
2021/10/03 09:47:24;;;;;;;91.70;72.00;;;19.60;99.90;;;;;;5023569;28;20404;-83
2021/10/03 09:50:56;;;;;;;152.73;139.23;;;19.60;99.90;;;;;;5012467;28;20422;-84
2021/10/03 09:54:14;;;;;;;114.90;103.57;;;19.60;99.90;;;;;;4959795;29;20379;-84
2021/10/03 09:56:50;;;;;;;120.20;107.73;;;19.60;99.90;;;;;;4928306;29;20424;-83
2021/10/03 09:59:17;;;;;;;89.00;57.43;;;19.60;99.90;;;;;;4978879;28;20516;-82
2021/10/03 10:01:55;;;;;;;103.70;89.60;;;19.70;99.90;;;;;;4982509;28;20413;-83
2021/10/03 10:04:59;;;;;;;98.70;87.97;;;19.70;99.90;;;;;;4979825;28;20476;-82
2021/10/03 10:10:14;;;;;;;91.47;74.20;;;19.80;99.90;;;;;;5038575;28;20476;-83
2021/10/03 10:13:06;;;;;;;109.87;98.77;;;19.90;99.90;;;;;;5037882;28;20535;-84
2021/10/03 10:15:39;;;;;;;150.90;138.07;;;19.90;99.90;;;;;;5039391;28;20491;-83
2021/10/03 10:22:13;;;;;;;180.17;166.33;;;19.90;99.90;;;;;;4936722;29;20411;-84
2021/10/03 10:25:20;;;;;;;169.87;156.37;;;20.00;99.90;;;;;;4923036;29;20549;-84
2021/10/03 10:28:09;;;;;;;181.97;167.90;;;20.10;99.90;;;;;;5038915;22;20514;-84
2021/10/03 10:30:36;;;;;;;140.10;127.33;;;20.00;99.90;;;;;;5042235;28;20407;-83
2021/10/03 10:33:11;;;;;;;139.53;126.87;;;20.10;99.90;;;;;;5042761;28;20830;-84
2021/10/03 10:35:44;;;;;;;112.80;101.67;;;20.10;99.90;;;;;;5058720;28;20386;-84
2021/10/03 10:38:18;;;;;;;119.33;107.87;;;20.10;99.90;;;;;;5057290;28;20980;-84
2021/10/03 10:43:31;;;;;;;111.97;100.67;;;20.20;99.90;;;;;;5059936;28;20393;-84
2021/10/03 10:45:57;;;;;;;113.00;101.77;;;20.20;99.90;;;;;;5040810;28;20508;-84
2021/10/03 10:48:28;;;;;;;128.40;116.40;;;20.10;99.90;;;;;;5057989;28;20435;-84
2021/10/03 10:50:53;;;;;;;116.30;104.73;;;20.10;99.90;;;;;;5058701;28;20137;-83
2021/10/03 10:53:26;;;;;;;91.17;75.40;;;20.20;99.90;;;;;;5040348;28;20403;-84
2021/10/03 10:56:27;;;;;;;105.23;94.23;;;20.20;99.90;;;;;;5057688;28;20153;-83
2021/10/03 10:58:55;;;;;;;107.70;96.70;;;20.20;99.90;;;;;;5040730;28;20445;-85
2021/10/03 11:01:33;;;;;;;90.23;69.07;;;20.20;99.90;;;;;;5058431;28;20391;-85
2021/10/03 11:04:04;;;;;;;101.33;90.53;;;20.30;99.90;;;;;;5059073;28;20841;-85
2021/10/03 11:06:41;;;;;;;92.80;78.07;;;20.20;99.90;;;;;;5040802;28;20418;-85
2021/10/03 11:09:09;;;;;;;100.07;88.57;;;20.20;99.90;;;;;;5059146;28;20382;-85
2021/10/03 11:12:23;;;;;;;94.37;80.93;;;20.20;99.90;;;;;;5058311;28;20468;-85
2021/10/03 11:15:08;;;;;;;86.00;55.60;;;20.30;99.90;;;;;;5058422;28;20751;-85
2021/10/03 11:17:46;;;;;;;84.63;54.80;;;20.30;99.90;;;;;;5040062;28;20454;-84
2021/10/03 11:20:57;;;;;;;83.50;52.70;;;20.30;99.90;;;;;;5058496;28;20380;-84
2021/10/03 11:23:51;;;;;;;82.97;51.50;;;20.40;99.90;;;;;;4977483;28;20458;-84
2021/10/03 11:26:24;;;;;;;84.40;54.10;;;20.40;99.90;;;;;;4985180;28;20427;-84
2021/10/03 11:29:03;;;;;;;83.30;51.50;;;20.40;99.90;;;;;;5058220;28;20447;-84
2021/10/03 11:31:55;;;;;;;85.07;54.03;;;20.50;99.90;;;;;;5058205;28;20433;-84
2021/10/03 11:34:55;;;;;;;84.27;54.87;;;20.60;99.90;;;;;;5057596;28;20768;-84
2021/10/03 11:37:38;;;;;;;84.80;48.63;;;20.70;99.90;;;;;;5058013;28;20423;-84
2021/10/03 11:40:38;;;;;;;89.37;66.63;;;20.70;99.90;;;;;;5058178;28;20412;-83
2021/10/03 11:43:05;;;;;;;93.00;76.77;;;20.80;99.90;;;;;;5043611;28;20417;-84
2021/10/03 11:45:49;;;;;;;112.63;101.13;;;20.80;99.90;;;;;;5057689;28;20447;-85
2021/10/03 11:48:40;;;;;;;111.50;100.07;;;20.80;99.90;;;;;;5057762;28;20421;-84
2021/10/03 11:51:17;;;;;;;111.83;100.53;;;20.90;99.90;;;;;;5039908;28;20426;-85
2021/10/03 11:54:05;;;;;;;132.80;120.90;;;20.80;99.90;;;;;;5057213;28;20385;-84
2021/10/03 11:56:38;;;;;;;130.43;118.77;;;20.80;99.90;;;;;;5032581;28;21017;-84
2021/10/03 11:59:24;;;;;;;161.00;147.63;;;20.70;99.90;;;;;;5056893;28;20467;-84
2021/10/03 12:01:58;;;;;;;138.53;126.07;;;20.80;99.90;;;;;;5057646;28;20740;-84
2021/10/03 12:04:36;;;;;;;142.60;130.47;;;20.70;99.90;;;;;;5039921;28;20447;-84
2021/10/03 12:07:14;;;;;;;121.73;109.90;;;20.70;99.90;;;;;;5056354;28;20430;-84
2021/10/03 12:10:19;;;;;;;136.17;123.63;;;20.70;99.90;;;;;;5057398;28;20447;-85
2021/10/03 12:12:59;;;;;;;97.93;87.13;;;20.70;99.90;;;;;;5057544;28;20437;-84
2021/10/03 12:15:54;;;;;;;141.70;128.57;;;20.70;99.90;;;;;;5057483;28;20392;-85
2021/10/03 12:18:59;;;;;;;140.17;127.67;;;20.70;99.90;;;;;;4985349;28;20462;-85
2021/10/03 12:22:06;;;;;;;148.77;136.33;;;20.70;99.90;;;;;;5055670;28;20464;-81
2021/10/03 12:24:40;;;;;;;131.40;119.60;;;20.80;99.90;;;;;;5031744;28;20454;-82
2021/10/03 12:27:12;;;;;;;175.60;162.13;;;20.80;99.90;;;;;;5036734;28;20426;-82
2021/10/03 12:30:01;;;;;;;138.93;126.73;;;20.80;99.90;;;;;;5055417;28;20388;-85
2021/10/03 12:32:30;;;;;;;121.63;110.23;;;20.80;99.90;;;;;;5055692;28;20853;-83
2021/10/03 12:35:04;;;;;;;115.20;104.10;;;20.90;99.90;;;;;;5037554;28;20469;-84
2021/10/03 12:37:52;;;;;;;132.47;120.57;;;20.80;99.90;;;;;;5057129;28;20472;-84
2021/10/03 12:40:22;;;;;;;110.90;99.50;;;20.80;99.90;;;;;;5040316;28;20783;-84
2021/10/03 12:42:48;;;;;;;107.33;96.23;;;20.80;99.90;;;;;;5039469;28;20926;-83
2021/10/03 12:45:15;;;;;;;109.83;98.77;;;20.70;99.90;;;;;;5039218;28;20904;-84
2021/10/03 12:47:49;;;;;;;123.70;112.23;;;20.70;99.90;;;;;;5039903;28;20942;-84